• Join FlightAware (Why Join?)
  • Login
  • US Flag 
02:27AM EDT


 

Airport Tracker/Info


-or-


 

Live Flight TrackerFlight Track Log ✈ SWA1199 ✈ 20-Apr-2013 ✈ KMCO - KORF

Flight Track Log - Related Links

Times and Time Zones

All times are in EDT time to prevent confusion due to time zone crossing. See the SWA1199 flight status page for this flight to view local times or setup timezone preferences in your user account.

Time Position Orientation Groundspeed Altitude Reporting Facility
EDT Latitude Longitude Course Direction KTS MPH feet Rate Location/Type
09:08PM 28.4500 -81.2833 48° Northeast 177 204 1,700  Level Orlando TRACON
09:09PM 28.5167 -81.3000 348° North 271 312 3,800 2,760 Climbing Orlando TRACON
09:11PM 28.6622 -81.3264 351° North 295 339 9,800 2,820 Climbing Jacksonville Center
09:12PM 28.7458 -81.3369 354° North 300 345 12,200 2,700 Climbing Jacksonville Center
09:13PM 28.8439 -81.3519 352° North 321 369 15,200 3,000 Climbing Jacksonville Center
09:14PM 28.9444 -81.3692 351° North 344 396 18,200 3,120 Climbing Jacksonville Center
09:15PM 29.0531 -81.3819 354° North 371 427 21,500 2,760 Climbing Jacksonville Center
09:16PM 29.1658 -81.3992 352° North 391 450 23,800 2,220 Climbing Jacksonville Center
09:17PM 29.2808 -81.4094 356° North 402 463 26,000 2,100 Climbing Jacksonville Center
09:18PM 29.4042 -81.4194 356° North 420 483 28,100 2,040 Climbing Jacksonville Center
09:19PM 29.5400 -81.4342 355° North 440 506 30,200 1,740 Climbing Jacksonville Center
09:20PM 29.6694 -81.4464 355° North 451 519 31,600 1,440 Climbing Jacksonville Center
09:21PM 29.8072 -81.4325 North 472 543 33,100 3,660 Climbing Jacksonville Center
09:22PM 29.9469 -81.4183 North 487 560 39,000 1,680 Climbing Jacksonville Center
09:23PM 30.0908 -81.4067 North 499 574 36,600 -360 Descending Jacksonville Center
09:24PM 30.2264 -81.3900 North 499 574 38,300 1,200 Climbing Jacksonville Center
09:25PM 30.3639 -81.3783 North 494 568 39,000 300 Climbing Jacksonville Center
09:26PM 30.4975 -81.3642 North 494 568 39,000  Level Jacksonville Center
09:27PM 30.6303 -81.2967 24° Northeast 494 568 39,000  Level Jacksonville Center
09:28PM 30.7522 -81.2078 32° Northeast 500 575 39,000  Level Jacksonville Center
09:29PM 30.8742 -81.1136 34° Northeast 513 590 39,000  Level Jacksonville Center
09:30PM 30.9981 -81.0217 32° Northeast 520 598 39,000  Level Jacksonville Center
09:31PM 31.1200 -80.9317 32° Northeast 520 598 39,000  Level Jacksonville Center
09:32PM 31.2439 -80.8417 32° Northeast 520 598 39,000  Level Jacksonville Center
09:33PM 31.3656 -80.7467 34° Northeast 520 598 39,000  Level Jacksonville Center
09:34PM 31.4850 -80.6586 32° Northeast 514 592 39,000  Level Jacksonville Center
09:35PM 31.6067 -80.5678 32° Northeast 520 598 39,000  Level Jacksonville Center
09:36PM 31.7178 -80.4819 33° Northeast 520 598 39,000  Level Jacksonville Center
09:37PM 31.8411 -80.3858 33° Northeast 520 598 39,000  Level Jacksonville Center
09:38PM 31.9622 -80.2897 34° Northeast 520 598 39,000  Level Jacksonville Center
09:39PM 32.0856 -80.1978 32° Northeast 520 598 39,000  Level Jacksonville Center
09:40PM 32.2089 -80.1033 33° Northeast 520 598 39,000  Level Jacksonville Center
09:41PM 32.3486 -79.9983 32° Northeast 525 604 39,000  Level Jacksonville Center
09:42PM 32.4717 -79.9033 33° Northeast 525 604 39,000  Level Jacksonville Center
09:43PM 32.5944 -79.8081 33° Northeast 525 604 39,000  Level Jacksonville Center
09:44PM 32.7172 -79.7100 34° Northeast 525 604 39,000  Level Jacksonville Center
09:45PM 32.8400 -79.6117 34° Northeast 525 604 39,000  Level Jacksonville Center
09:46PM 32.9647 -79.5131 34° Northeast 525 604 39,000  Level Jacksonville Center
09:47PM 33.0872 -79.4167 33° Northeast 525 604 39,000  Level Jacksonville Center
09:48PM 33.2100 -79.3200 33° Northeast 525 604 39,000  Level Jacksonville Center
09:49PM 33.3344 -79.2231 33° Northeast 525 604 39,000  Level Jacksonville Center
09:50PM 33.4589 -79.1258 33° Northeast 525 604 39,000 -600 Level Jacksonville Center
09:52PM 33.6525 -78.9717 34° Northeast 529 609 37,500 -780 Descending Washington Center
09:53PM 33.7764 -78.8719 34° Northeast 529 609 37,000 -780 Descending Washington Center
09:54PM 33.9022 -78.7744 33° Northeast 529 609 36,000 -1,020 Descending Washington Center
09:55PM 34.0278 -78.6714 34° Northeast 534 615 35,000 -540 Descending Washington Center
09:56PM 34.1536 -78.5706 34° Northeast 539 620 35,000  Level Washington Center
09:57PM 34.2897 -78.4625 33° Northeast 539 620 35,000  Level Washington Center
09:58PM 34.4175 -78.3561 34° Northeast 544 626 35,000  Level Washington Center
09:59PM 34.5408 -78.2544 34° Northeast 544 626 35,000  Level Washington Center
10:00PM 34.6681 -78.1500 34° Northeast 544 626 35,000 -60 Level Washington Center
10:01PM 34.7892 -78.0478 35° Northeast 539 620 34,900 -600 Descending Washington Center
10:02PM 34.9144 -77.9400 35° Northeast 539 620 33,900 -960 Descending Washington Center
10:03PM 35.0439 -77.8322 34° Northeast 549 632 33,000 -960 Descending Washington Center
10:04PM 35.1689 -77.7264 35° Northeast 549 632 32,000 -1,020 Descending Washington Center
10:05PM 35.2853 -77.6278 35° Northeast 554 638 31,000 -1,260 Descending Washington Center
10:06PM 35.4081 -77.5339 32° Northeast 546 628 29,500 -1,740 Descending Washington Center
10:07PM 35.5303 -77.4500 29° Northeast 524 603 27,600 -1,740 Descending Washington Center
10:08PM 35.6483 -77.3736 28° Northeast 495 570 26,100 -1,620 Descending Washington Center
10:09PM 35.7622 -77.2942 30° Northeast 476 548 24,400 -1,860 Descending Washington Center
10:10PM 35.8694 -77.2222 29° Northeast 457 526 22,400 -1,800 Descending Washington Center
10:11PM 35.9667 -77.1394 35° Northeast 440 506 20,800 -1,860 Descending Washington Center
10:12PM 36.0597 -77.0436 40° Northeast 418 481 18,700 -1,980 Descending Washington Center
10:13PM 36.1442 -76.9578 39° Northeast 399 459 16,900 -2,400 Descending Washington Center
10:14PM 36.2242 -76.8819 37° Northeast 395 455 14,200 -2,580 Descending Washington Center
10:15PM 36.3086 -76.7931 40° Northeast 393 452 12,000 -1,680 Descending Washington Center
10:16PM 36.3822 -76.7194 39° Northeast 370 426 11,000 -1,200 Descending Washington Center
10:17PM 36.4519 -76.6506 38° Northeast 312 359 9,800 -1,440 Descending Washington Center
10:18PM 36.5169 -76.5817 40° Northeast 304 350 8,200 -1,680 Descending Washington Center
10:19PM 36.5803 -76.5178 39° Northeast 293 337 6,500 -1,680 Descending Washington Center
10:20PM 36.6347 -76.4592 41° Northeast 259 298 4,900 -1,620 Descending Washington Center
10:21PM 36.6894 -76.4053 38° Northeast 255 293 3,300 -1,500 Descending Washington Center
10:22PM 36.7442 -76.3489 40° Northeast 249 287 1,900 -900 Descending Washington Center
10:23PM 36.7967 -76.2975 38° Northeast 212 244 1,500 -300 Descending Washington Center
10:24PM 36.8342 -76.2642 35° Northeast 148 170 1,300 -480 Descending Washington Center
10:25PM 36.8658 -76.2331 38° Northeast 135 155 600 -720 Descending Washington Center